sensor_id;sensor_type;location;lat;lon;timestamp;P1;durP1;ratioP1;P2;durP2;ratioP2
70560;SDS011;58109;53.570;10.084;2022-11-04T00:01:53;9.80;;;3.87;;
70560;SDS011;58109;53.570;10.084;2022-11-04T00:04:20;11.67;;;3.93;;
70560;SDS011;58109;53.570;10.084;2022-11-04T00:06:47;7.43;;;3.80;;
70560;SDS011;58109;53.570;10.084;2022-11-04T00:09:15;16.37;;;4.20;;
70560;SDS011;58109;53.570;10.084;2022-11-04T00:11:46;16.00;;;4.17;;
70560;SDS011;58109;53.570;10.084;2022-11-04T00:14:33;11.83;;;4.10;;
70560;SDS011;58109;53.570;10.084;2022-11-04T00:16:59;14.77;;;4.57;;
70560;SDS011;58109;53.570;10.084;2022-11-04T00:19:46;8.73;;;4.10;;
70560;SDS011;58109;53.570;10.084;2022-11-04T00:22:35;11.37;;;4.17;;
70560;SDS011;58109;53.570;10.084;2022-11-04T00:25:19;10.43;;;4.50;;
70560;SDS011;58109;53.570;10.084;2022-11-04T00:28:04;11.17;;;5.23;;
70560;SDS011;58109;53.570;10.084;2022-11-04T00:30:55;10.53;;;3.67;;
70560;SDS011;58109;53.570;10.084;2022-11-04T00:33:21;14.70;;;4.20;;
70560;SDS011;58109;53.570;10.084;2022-11-04T00:35:55;11.33;;;4.50;;
70560;SDS011;58109;53.570;10.084;2022-11-04T00:38:22;11.67;;;4.67;;
70560;SDS011;58109;53.570;10.084;2022-11-04T00:40:50;8.10;;;3.93;;
70560;SDS011;58109;53.570;10.084;2022-11-04T00:43:18;10.73;;;4.80;;
70560;SDS011;58109;53.570;10.084;2022-11-04T00:45:44;18.17;;;4.53;;
70560;SDS011;58109;53.570;10.084;2022-11-04T00:48:10;8.07;;;3.83;;
70560;SDS011;58109;53.570;10.084;2022-11-04T00:50:35;9.53;;;4.33;;
70560;SDS011;58109;53.570;10.084;2022-11-04T00:53:01;12.07;;;3.83;;
70560;SDS011;58109;53.570;10.084;2022-11-04T00:55:27;8.23;;;3.60;;
70560;SDS011;58109;53.570;10.084;2022-11-04T00:57:53;5.97;;;3.70;;
70560;SDS011;58109;53.570;10.084;2022-11-04T01:00:18;9.87;;;4.30;;
70560;SDS011;58109;53.570;10.084;2022-11-04T01:02:46;6.57;;;3.80;;
70560;SDS011;58109;53.570;10.084;2022-11-04T01:05:11;8.33;;;4.00;;
70560;SDS011;58109;53.570;10.084;2022-11-04T01:07:37;11.10;;;4.17;;
70560;SDS011;58109;53.570;10.084;2022-11-04T01:10:03;11.20;;;3.77;;
70560;SDS011;58109;53.570;10.084;2022-11-04T01:12:29;8.87;;;3.90;;
70560;SDS011;58109;53.570;10.084;2022-11-04T01:14:57;11.87;;;3.93;;
70560;SDS011;58109;53.570;10.084;2022-11-04T01:17:25;13.67;;;4.93;;
70560;SDS011;58109;53.570;10.084;2022-11-04T01:19:52;12.67;;;4.37;;
70560;SDS011;58109;53.570;10.084;2022-11-04T01:22:18;15.83;;;3.57;;
70560;SDS011;58109;53.570;10.084;2022-11-04T01:24:43;8.57;;;4.50;;
70560;SDS011;58109;53.570;10.084;2022-11-04T01:27:08;7.80;;;3.77;;
70560;SDS011;58109;53.570;10.084;2022-11-04T01:29:34;12.50;;;4.17;;
70560;SDS011;58109;53.570;10.084;2022-11-04T01:31:59;8.40;;;4.87;;
70560;SDS011;58109;53.570;10.084;2022-11-04T01:34:27;12.07;;;4.10;;
70560;SDS011;58109;53.570;10.084;2022-11-04T01:36:52;9.50;;;4.00;;
70560;SDS011;58109;53.570;10.084;2022-11-04T01:39:17;10.33;;;4.43;;
70560;SDS011;58109;53.570;10.084;2022-11-04T01:41:43;14.30;;;4.37;;
70560;SDS011;58109;53.570;10.084;2022-11-04T01:47:40;16.03;;;4.73;;
70560;SDS011;58109;53.570;10.084;2022-11-04T01:52:46;10.60;;;5.03;;
70560;SDS011;58109;53.570;10.084;2022-11-04T01:55:24;15.93;;;5.03;;
70560;SDS011;58109;53.570;10.084;2022-11-04T01:57:52;9.20;;;4.90;;
70560;SDS011;58109;53.570;10.084;2022-11-04T02:00:19;10.80;;;4.80;;
70560;SDS011;58109;53.570;10.084;2022-11-04T02:02:53;15.53;;;4.90;;
70560;SDS011;58109;53.570;10.084;2022-11-04T02:05:21;8.30;;;4.50;;
70560;SDS011;58109;53.570;10.084;2022-11-04T02:07:49;8.70;;;4.60;;
70560;SDS011;58109;53.570;10.084;2022-11-04T02:10:18;8.90;;;4.83;;
70560;SDS011;58109;53.570;10.084;2022-11-04T02:12:45;12.70;;;4.87;;
70560;SDS011;58109;53.570;10.084;2022-11-04T02:15:13;12.60;;;4.90;;
70560;SDS011;58109;53.570;10.084;2022-11-04T02:31:29;16.63;;;5.17;;
70560;SDS011;58109;53.570;10.084;2022-11-04T02:34:00;8.07;;;4.67;;
70560;SDS011;58109;53.570;10.084;2022-11-04T02:37:15;12.60;;;5.13;;
70560;SDS011;58109;53.570;10.084;2022-11-04T02:42:27;14.47;;;5.03;;
70560;SDS011;58109;53.570;10.084;2022-11-04T02:45:04;12.07;;;4.53;;
70560;SDS011;58109;53.570;10.084;2022-11-04T02:47:31;10.00;;;5.07;;
70560;SDS011;58109;53.570;10.084;2022-11-04T02:50:47;12.87;;;5.70;;
70560;SDS011;58109;53.570;10.084;2022-11-04T02:56:01;18.37;;;4.83;;
70560;SDS011;58109;53.570;10.084;2022-11-04T02:59:10;10.90;;;4.73;;
70560;SDS011;58109;53.570;10.084;2022-11-04T03:01:17;16.53;;;5.13;;
70560;SDS011;58109;53.570;10.084;2022-11-04T03:03:47;13.10;;;4.67;;
70560;SDS011;58109;53.570;10.084;2022-11-04T03:06:16;11.20;;;5.10;;
70560;SDS011;58109;53.570;10.084;2022-11-04T03:08:44;8.27;;;5.17;;
70560;SDS011;58109;53.570;10.084;2022-11-04T03:11:15;16.03;;;5.30;;
70560;SDS011;58109;53.570;10.084;2022-11-04T03:13:48;7.63;;;5.00;;
70560;SDS011;58109;53.570;10.084;2022-11-04T03:16:18;10.50;;;4.97;;
70560;SDS011;58109;53.570;10.084;2022-11-04T03:18:49;10.33;;;5.53;;
70560;SDS011;58109;53.570;10.084;2022-11-04T03:21:24;10.73;;;4.93;;
70560;SDS011;58109;53.570;10.084;2022-11-04T03:23:53;16.57;;;6.00;;
70560;SDS011;58109;53.570;10.084;2022-11-04T03:28:57;8.20;;;4.93;;
70560;SDS011;58109;53.570;10.084;2022-11-04T03:31:49;14.43;;;6.17;;
70560;SDS011;58109;53.570;10.084;2022-11-04T03:34:15;9.33;;;4.80;;
70560;SDS011;58109;53.570;10.084;2022-11-04T03:36:40;12.23;;;5.40;;
70560;SDS011;58109;53.570;10.084;2022-11-04T03:39:06;14.83;;;5.43;;
70560;SDS011;58109;53.570;10.084;2022-11-04T03:41:39;11.50;;;5.60;;
70560;SDS011;58109;53.570;10.084;2022-11-04T03:44:07;7.17;;;5.20;;
70560;SDS011;58109;53.570;10.084;2022-11-04T03:46:35;10.20;;;5.60;;
70560;SDS011;58109;53.570;10.084;2022-11-04T03:49:00;19.60;;;6.10;;
70560;SDS011;58109;53.570;10.084;2022-11-04T03:51:26;17.33;;;6.30;;
70560;SDS011;58109;53.570;10.084;2022-11-04T03:53:51;14.07;;;6.83;;
70560;SDS011;58109;53.570;10.084;2022-11-04T04:01:56;11.90;;;6.67;;
70560;SDS011;58109;53.570;10.084;2022-11-04T04:04:29;13.83;;;6.30;;
70560;SDS011;58109;53.570;10.084;2022-11-04T04:06:58;12.03;;;6.00;;
70560;SDS011;58109;53.570;10.084;2022-11-04T04:09:30;16.53;;;6.50;;
70560;SDS011;58109;53.570;10.084;2022-11-04T04:12:29;18.80;;;5.67;;
70560;SDS011;58109;53.570;10.084;2022-11-04T04:15:06;13.60;;;6.07;;
70560;SDS011;58109;53.570;10.084;2022-11-04T04:17:38;11.10;;;6.60;;
70560;SDS011;58109;53.570;10.084;2022-11-04T04:22:42;11.43;;;6.30;;
70560;SDS011;58109;53.570;10.084;2022-11-04T04:25:11;33.00;;;6.90;;
70560;SDS011;58109;53.570;10.084;2022-11-04T04:27:57;14.07;;;6.33;;
70560;SDS011;58109;53.570;10.084;2022-11-04T04:30:22;15.47;;;7.00;;
70560;SDS011;58109;53.570;10.084;2022-11-04T04:35:22;10.37;;;5.70;;
70560;SDS011;58109;53.570;10.084;2022-11-04T04:41:09;14.23;;;6.03;;
70560;SDS011;58109;53.570;10.084;2022-11-04T04:43:56;12.17;;;6.40;;
70560;SDS011;58109;53.570;10.084;2022-11-04T04:46:41;14.10;;;6.03;;
70560;SDS011;58109;53.570;10.084;2022-11-04T04:49:07;8.00;;;5.37;;
70560;SDS011;58109;53.570;10.084;2022-11-04T04:51:33;10.90;;;5.80;;
70560;SDS011;58109;53.570;10.084;2022-11-04T04:54:01;7.63;;;4.63;;
70560;SDS011;58109;53.570;10.084;2022-11-04T04:56:27;9.10;;;6.00;;
70560;SDS011;58109;53.570;10.084;2022-11-04T04:58:52;14.07;;;4.80;;
70560;SDS011;58109;53.570;10.084;2022-11-04T05:01:20;6.43;;;4.10;;
70560;SDS011;58109;53.570;10.084;2022-11-04T05:03:47;8.63;;;3.87;;
70560;SDS011;58109;53.570;10.084;2022-11-04T05:06:13;8.47;;;4.10;;
70560;SDS011;58109;53.570;10.084;2022-11-04T05:08:38;12.40;;;3.30;;
70560;SDS011;58109;53.570;10.084;2022-11-04T05:11:06;6.63;;;3.53;;
70560;SDS011;58109;53.570;10.084;2022-11-04T05:13:33;4.93;;;2.93;;
70560;SDS011;58109;53.570;10.084;2022-11-04T05:16:03;4.30;;;2.73;;
70560;SDS011;58109;53.570;10.084;2022-11-04T05:18:29;3.30;;;2.40;;
70560;SDS011;58109;53.570;10.084;2022-11-04T05:20:55;4.10;;;2.33;;
70560;SDS011;58109;53.570;10.084;2022-11-04T05:23:20;7.90;;;2.80;;
70560;SDS011;58109;53.570;10.084;2022-11-04T05:25:48;2.37;;;2.20;;
70560;SDS011;58109;53.570;10.084;2022-11-04T05:28:13;3.20;;;2.60;;
70560;SDS011;58109;53.570;10.084;2022-11-04T05:30:39;4.23;;;2.00;;
70560;SDS011;58109;53.570;10.084;2022-11-04T05:33:04;2.20;;;2.00;;
70560;SDS011;58109;53.570;10.084;2022-11-04T05:35:30;1.97;;;1.87;;
70560;SDS011;58109;53.570;10.084;2022-11-04T05:37:55;2.80;;;1.90;;
70560;SDS011;58109;53.570;10.084;2022-11-04T05:40:21;2.67;;;2.13;;
70560;SDS011;58109;53.570;10.084;2022-11-04T05:42:49;3.80;;;1.83;;
70560;SDS011;58109;53.570;10.084;2022-11-04T05:45:17;2.83;;;1.90;;
70560;SDS011;58109;53.570;10.084;2022-11-04T05:47:43;3.67;;;2.03;;
70560;SDS011;58109;53.570;10.084;2022-11-04T05:50:11;3.40;;;2.10;;
70560;SDS011;58109;53.570;10.084;2022-11-04T05:52:39;2.63;;;2.10;;
70560;SDS011;58109;53.570;10.084;2022-11-04T05:55:06;2.17;;;1.97;;
70560;SDS011;58109;53.570;10.084;2022-11-04T05:57:32;4.03;;;2.00;;
70560;SDS011;58109;53.570;10.084;2022-11-04T05:59:59;2.53;;;1.90;;
70560;SDS011;58109;53.570;10.084;2022-11-04T06:02:25;4.43;;;2.30;;
70560;SDS011;58109;53.570;10.084;2022-11-04T06:04:50;3.23;;;2.53;;
70560;SDS011;58109;53.570;10.084;2022-11-04T06:07:15;4.70;;;3.53;;
70560;SDS011;58109;53.570;10.084;2022-11-04T06:09:40;6.00;;;2.13;;
70560;SDS011;58109;53.570;10.084;2022-11-04T06:12:10;4.47;;;2.63;;
70560;SDS011;58109;53.570;10.084;2022-11-04T06:14:39;3.70;;;2.20;;
70560;SDS011;58109;53.570;10.084;2022-11-04T06:17:05;5.67;;;3.00;;
70560;SDS011;58109;53.570;10.084;2022-11-04T06:19:30;4.13;;;2.30;;
70560;SDS011;58109;53.570;10.084;2022-11-04T06:21:56;6.63;;;2.97;;
70560;SDS011;58109;53.570;10.084;2022-11-04T06:24:21;7.80;;;2.47;;
70560;SDS011;58109;53.570;10.084;2022-11-04T06:26:46;3.63;;;1.80;;
70560;SDS011;58109;53.570;10.084;2022-11-04T06:29:12;3.73;;;2.57;;
70560;SDS011;58109;53.570;10.084;2022-11-04T06:31:40;2.60;;;2.03;;
70560;SDS011;58109;53.570;10.084;2022-11-04T06:34:08;6.20;;;2.10;;
70560;SDS011;58109;53.570;10.084;2022-11-04T06:36:33;5.03;;;2.37;;
70560;SDS011;58109;53.570;10.084;2022-11-04T06:38:58;2.70;;;2.50;;
70560;SDS011;58109;53.570;10.084;2022-11-04T06:41:24;5.30;;;2.90;;
70560;SDS011;58109;53.570;10.084;2022-11-04T06:43:49;4.37;;;3.30;;
70560;SDS011;58109;53.570;10.084;2022-11-04T06:46:28;4.40;;;2.87;;
70560;SDS011;58109;53.570;10.084;2022-11-04T06:48:57;5.80;;;3.00;;
70560;SDS011;58109;53.570;10.084;2022-11-04T06:51:25;6.60;;;2.90;;
70560;SDS011;58109;53.570;10.084;2022-11-04T06:53:55;4.17;;;3.13;;
70560;SDS011;58109;53.570;10.084;2022-11-04T06:56:20;3.53;;;3.23;;
70560;SDS011;58109;53.570;10.084;2022-11-04T06:58:49;6.27;;;3.77;;
70560;SDS011;58109;53.570;10.084;2022-11-04T07:01:18;5.77;;;4.00;;
70560;SDS011;58109;53.570;10.084;2022-11-04T07:03:50;5.47;;;3.87;;
70560;SDS011;58109;53.570;10.084;2022-11-04T07:06:19;6.70;;;4.07;;
70560;SDS011;58109;53.570;10.084;2022-11-04T07:08:45;5.20;;;4.23;;
70560;SDS011;58109;53.570;10.084;2022-11-04T07:11:11;6.57;;;4.30;;
70560;SDS011;58109;53.570;10.084;2022-11-04T07:13:36;7.53;;;4.70;;
70560;SDS011;58109;53.570;10.084;2022-11-04T07:16:05;8.20;;;4.80;;
70560;SDS011;58109;53.570;10.084;2022-11-04T07:18:34;6.10;;;3.90;;
70560;SDS011;58109;53.570;10.084;2022-11-04T07:21:00;6.83;;;4.30;;
70560;SDS011;58109;53.570;10.084;2022-11-04T07:23:25;5.03;;;4.50;;
70560;SDS011;58109;53.570;10.084;2022-11-04T07:25:51;7.73;;;4.10;;
70560;SDS011;58109;53.570;10.084;2022-11-04T07:28:18;5.67;;;4.10;;
70560;SDS011;58109;53.570;10.084;2022-11-04T07:30:44;10.80;;;4.57;;
70560;SDS011;58109;53.570;10.084;2022-11-04T07:33:09;7.70;;;4.37;;
70560;SDS011;58109;53.570;10.084;2022-11-04T07:35:35;9.20;;;4.00;;
70560;SDS011;58109;53.570;10.084;2022-11-04T07:38:00;6.30;;;4.23;;
70560;SDS011;58109;53.570;10.084;2022-11-04T07:40:28;6.60;;;4.80;;
70560;SDS011;58109;53.570;10.084;2022-11-04T07:42:53;9.33;;;5.17;;
70560;SDS011;58109;53.570;10.084;2022-11-04T07:45:21;8.33;;;4.80;;
70560;SDS011;58109;53.570;10.084;2022-11-04T07:47:46;11.27;;;4.70;;
70560;SDS011;58109;53.570;10.084;2022-11-04T07:50:14;11.93;;;4.77;;
70560;SDS011;58109;53.570;10.084;2022-11-04T07:52:42;6.70;;;5.10;;
70560;SDS011;58109;53.570;10.084;2022-11-04T07:55:07;10.00;;;4.80;;
70560;SDS011;58109;53.570;10.084;2022-11-04T07:57:36;9.40;;;5.03;;
70560;SDS011;58109;53.570;10.084;2022-11-04T08:00:02;9.10;;;4.80;;
70560;SDS011;58109;53.570;10.084;2022-11-04T08:02:30;6.30;;;5.23;;
70560;SDS011;58109;53.570;10.084;2022-11-04T08:05:01;7.13;;;4.63;;
70560;SDS011;58109;53.570;10.084;2022-11-04T08:07:26;7.67;;;5.10;;
70560;SDS011;58109;53.570;10.084;2022-11-04T08:09:52;6.50;;;5.00;;
70560;SDS011;58109;53.570;10.084;2022-11-04T08:12:17;6.50;;;5.10;;
70560;SDS011;58109;53.570;10.084;2022-11-04T08:14:44;14.10;;;9.50;;
70560;SDS011;58109;53.570;10.084;2022-11-04T08:17:10;13.43;;;8.03;;
70560;SDS011;58109;53.570;10.084;2022-11-04T08:19:35;11.03;;;8.50;;
70560;SDS011;58109;53.570;10.084;2022-11-04T08:22:00;8.87;;;5.90;;
70560;SDS011;58109;53.570;10.084;2022-11-04T08:24:26;9.63;;;6.33;;
70560;SDS011;58109;53.570;10.084;2022-11-04T08:26:51;7.73;;;5.90;;
70560;SDS011;58109;53.570;10.084;2022-11-04T08:29:17;7.30;;;5.40;;
70560;SDS011;58109;53.570;10.084;2022-11-04T08:31:44;6.87;;;4.43;;
70560;SDS011;58109;53.570;10.084;2022-11-04T08:34:10;9.73;;;5.50;;
70560;SDS011;58109;53.570;10.084;2022-11-04T08:36:36;7.90;;;4.50;;
70560;SDS011;58109;53.570;10.084;2022-11-04T08:39:04;7.23;;;4.23;;
70560;SDS011;58109;53.570;10.084;2022-11-04T08:41:32;6.90;;;3.90;;
70560;SDS011;58109;53.570;10.084;2022-11-04T08:43:58;13.83;;;5.13;;
70560;SDS011;58109;53.570;10.084;2022-11-04T08:46:26;5.27;;;4.40;;
70560;SDS011;58109;53.570;10.084;2022-11-04T08:48:52;7.63;;;4.77;;
70560;SDS011;58109;53.570;10.084;2022-11-04T08:51:21;8.73;;;4.97;;
70560;SDS011;58109;53.570;10.084;2022-11-04T08:53:50;5.60;;;4.63;;
70560;SDS011;58109;53.570;10.084;2022-11-04T08:56:20;10.67;;;5.20;;
70560;SDS011;58109;53.570;10.084;2022-11-04T08:58:47;6.80;;;4.80;;
70560;SDS011;58109;53.570;10.084;2022-11-04T09:01:18;6.57;;;5.30;;
70560;SDS011;58109;53.570;10.084;2022-11-04T09:03:45;6.40;;;4.50;;
70560;SDS011;58109;53.570;10.084;2022-11-04T09:06:14;9.40;;;5.00;;
70560;SDS011;58109;53.570;10.084;2022-11-04T09:08:43;8.57;;;4.80;;
70560;SDS011;58109;53.570;10.084;2022-11-04T09:11:10;10.17;;;4.80;;
70560;SDS011;58109;53.570;10.084;2022-11-04T09:13:36;9.00;;;4.50;;
70560;SDS011;58109;53.570;10.084;2022-11-04T09:16:05;7.93;;;4.57;;
70560;SDS011;58109;53.570;10.084;2022-11-04T09:18:30;7.27;;;4.57;;
70560;SDS011;58109;53.570;10.084;2022-11-04T09:20:59;9.70;;;4.00;;
70560;SDS011;58109;53.570;10.084;2022-11-04T09:23:28;8.50;;;4.07;;
70560;SDS011;58109;53.570;10.084;2022-11-04T09:25:54;4.30;;;3.90;;
70560;SDS011;58109;53.570;10.084;2022-11-04T09:28:23;4.90;;;4.47;;
70560;SDS011;58109;53.570;10.084;2022-11-04T09:30:49;4.47;;;4.07;;
70560;SDS011;58109;53.570;10.084;2022-11-04T09:33:14;8.17;;;4.03;;
70560;SDS011;58109;53.570;10.084;2022-11-04T09:35:40;7.37;;;4.10;;
70560;SDS011;58109;53.570;10.084;2022-11-04T09:38:08;4.17;;;3.70;;
70560;SDS011;58109;53.570;10.084;2022-11-04T09:40:34;8.50;;;3.53;;
70560;SDS011;58109;53.570;10.084;2022-11-04T09:45:46;3.73;;;3.10;;
70560;SDS011;58109;53.570;10.084;2022-11-04T09:48:23;3.53;;;3.23;;
70560;SDS011;58109;53.570;10.084;2022-11-04T09:50:59;6.03;;;4.20;;
70560;SDS011;58109;53.570;10.084;2022-11-04T09:56:14;3.97;;;3.63;;
70560;SDS011;58109;53.570;10.084;2022-11-04T09:58:41;6.27;;;3.40;;
70560;SDS011;58109;53.570;10.084;2022-11-04T10:01:22;3.90;;;2.97;;
70560;SDS011;58109;53.570;10.084;2022-11-04T10:09:24;4.80;;;3.20;;
70560;SDS011;58109;53.570;10.084;2022-11-04T10:28:09;3.83;;;3.43;;
70560;SDS011;58109;53.570;10.084;2022-11-04T10:30:40;3.37;;;3.07;;
70560;SDS011;58109;53.570;10.084;2022-11-04T10:33:24;5.03;;;3.60;;
70560;SDS011;58109;53.570;10.084;2022-11-04T10:35:57;6.33;;;3.10;;
70560;SDS011;58109;53.570;10.084;2022-11-04T10:38:39;3.60;;;3.30;;
70560;SDS011;58109;53.570;10.084;2022-11-04T10:43:46;4.20;;;3.80;;
70560;SDS011;58109;53.570;10.084;2022-11-04T10:49:04;8.00;;;3.77;;
70560;SDS011;58109;53.570;10.084;2022-11-04T10:51:38;3.53;;;3.23;;
70560;SDS011;58109;53.570;10.084;2022-11-04T10:54:11;7.70;;;3.90;;
70560;SDS011;58109;53.570;10.084;2022-11-04T10:56:37;4.90;;;3.07;;
70560;SDS011;58109;53.570;10.084;2022-11-04T10:59:26;6.70;;;3.23;;
70560;SDS011;58109;53.570;10.084;2022-11-04T11:01:57;5.23;;;3.20;;
70560;SDS011;58109;53.570;10.084;2022-11-04T11:06:54;7.27;;;2.70;;
70560;SDS011;58109;53.570;10.084;2022-11-04T11:09:28;4.37;;;2.70;;
70560;SDS011;58109;53.570;10.084;2022-11-04T11:14:39;2.80;;;2.60;;
70560;SDS011;58109;53.570;10.084;2022-11-04T11:20:02;4.10;;;2.80;;
70560;SDS011;58109;53.570;10.084;2022-11-04T11:22:46;5.23;;;2.47;;
70560;SDS011;58109;53.570;10.084;2022-11-04T11:25:27;10.93;;;2.37;;
70560;SDS011;58109;53.570;10.084;2022-11-04T11:28:21;3.40;;;2.30;;
70560;SDS011;58109;53.570;10.084;2022-11-04T11:35:52;7.00;;;1.93;;
70560;SDS011;58109;53.570;10.084;2022-11-04T11:38:25;3.17;;;1.80;;
70560;SDS011;58109;53.570;10.084;2022-11-04T11:41:14;1.50;;;1.40;;
70560;SDS011;58109;53.570;10.084;2022-11-04T11:43:49;4.20;;;1.90;;
70560;SDS011;58109;53.570;10.084;2022-11-04T11:46:20;2.00;;;1.53;;
70560;SDS011;58109;53.570;10.084;2022-11-04T11:48:51;5.03;;;1.77;;
70560;SDS011;58109;53.570;10.084;2022-11-04T11:51:24;3.93;;;2.00;;
70560;SDS011;58109;53.570;10.084;2022-11-04T11:57:01;3.47;;;1.50;;
70560;SDS011;58109;53.570;10.084;2022-11-04T12:08:07;1.80;;;1.10;;
70560;SDS011;58109;53.570;10.084;2022-11-04T12:13:45;4.33;;;1.10;;
70560;SDS011;58109;53.570;10.084;2022-11-04T12:16:21;4.13;;;1.10;;
70560;SDS011;58109;53.570;10.084;2022-11-04T12:30:23;4.10;;;1.17;;
70560;SDS011;58109;53.570;10.084;2022-11-04T12:43:23;8.93;;;1.43;;
70560;SDS011;58109;53.570;10.084;2022-11-04T12:56:43;18.87;;;1.23;;
70560;SDS011;58109;53.570;10.084;2022-11-04T12:59:20;5.80;;;1.10;;
70560;SDS011;58109;53.570;10.084;2022-11-04T13:01:58;4.67;;;1.13;;
70560;SDS011;58109;53.570;10.084;2022-11-04T13:04:37;5.67;;;1.33;;
70560;SDS011;58109;53.570;10.084;2022-11-04T13:07:14;5.93;;;1.27;;
70560;SDS011;58109;53.570;10.084;2022-11-04T13:09:53;6.23;;;1.10;;
70560;SDS011;58109;53.570;10.084;2022-11-04T13:12:31;9.37;;;1.40;;
70560;SDS011;58109;53.570;10.084;2022-11-04T13:15:02;7.37;;;1.27;;
70560;SDS011;58109;53.570;10.084;2022-11-04T13:17:36;5.50;;;1.57;;
70560;SDS011;58109;53.570;10.084;2022-11-04T13:22:35;6.40;;;1.40;;
70560;SDS011;58109;53.570;10.084;2022-11-04T13:25:03;6.70;;;1.60;;
70560;SDS011;58109;53.570;10.084;2022-11-04T13:27:42;4.80;;;1.40;;
70560;SDS011;58109;53.570;10.084;2022-11-04T13:33:01;5.10;;;1.20;;
70560;SDS011;58109;53.570;10.084;2022-11-04T13:38:09;5.60;;;1.70;;
70560;SDS011;58109;53.570;10.084;2022-11-04T13:43:34;3.53;;;1.40;;
70560;SDS011;58109;53.570;10.084;2022-11-04T13:48:35;3.43;;;1.20;;
70560;SDS011;58109;53.570;10.084;2022-11-04T13:51:07;8.53;;;1.83;;
70560;SDS011;58109;53.570;10.084;2022-11-04T14:04:43;10.20;;;1.70;;
70560;SDS011;58109;53.570;10.084;2022-11-04T14:07:10;15.77;;;1.60;;
70560;SDS011;58109;53.570;10.084;2022-11-04T14:14:45;3.20;;;1.30;;
70560;SDS011;58109;53.570;10.084;2022-11-04T14:27:53;8.07;;;1.50;;
70560;SDS011;58109;53.570;10.084;2022-11-04T14:30:33;7.00;;;1.37;;
70560;SDS011;58109;53.570;10.084;2022-11-04T14:35:52;6.90;;;1.70;;
70560;SDS011;58109;53.570;10.084;2022-11-04T14:40:52;5.80;;;1.20;;
70560;SDS011;58109;53.570;10.084;2022-11-04T14:43:36;5.50;;;1.40;;
70560;SDS011;58109;53.570;10.084;2022-11-04T14:46:09;5.73;;;1.60;;
70560;SDS011;58109;53.570;10.084;2022-11-04T14:48:45;6.03;;;1.23;;
70560;SDS011;58109;53.570;10.084;2022-11-04T14:51:23;3.90;;;1.23;;
70560;SDS011;58109;53.570;10.084;2022-11-04T14:54:01;3.30;;;0.97;;
70560;SDS011;58109;53.570;10.084;2022-11-04T14:56:29;5.50;;;1.27;;
70560;SDS011;58109;53.570;10.084;2022-11-04T15:01:21;8.03;;;1.70;;
70560;SDS011;58109;53.570;10.084;2022-11-04T15:03:47;2.90;;;1.37;;
70560;SDS011;58109;53.570;10.084;2022-11-04T15:06:12;5.73;;;1.17;;
70560;SDS011;58109;53.570;10.084;2022-11-04T15:08:47;4.60;;;1.53;;
70560;SDS011;58109;53.570;10.084;2022-11-04T15:11:14;10.27;;;1.50;;
70560;SDS011;58109;53.570;10.084;2022-11-04T15:16:20;10.40;;;2.63;;
70560;SDS011;58109;53.570;10.084;2022-11-04T15:18:47;13.47;;;1.80;;
70560;SDS011;58109;53.570;10.084;2022-11-04T15:21:14;6.23;;;2.13;;
70560;SDS011;58109;53.570;10.084;2022-11-04T15:23:41;7.63;;;1.93;;
70560;SDS011;58109;53.570;10.084;2022-11-04T15:28:51;7.87;;;2.20;;
70560;SDS011;58109;53.570;10.084;2022-11-04T15:31:19;4.70;;;1.93;;
70560;SDS011;58109;53.570;10.084;2022-11-04T15:33:48;7.17;;;1.73;;
70560;SDS011;58109;53.570;10.084;2022-11-04T15:36:19;9.83;;;1.87;;
70560;SDS011;58109;53.570;10.084;2022-11-04T15:38:57;7.03;;;1.40;;
70560;SDS011;58109;53.570;10.084;2022-11-04T15:41:25;6.80;;;1.30;;
70560;SDS011;58109;53.570;10.084;2022-11-04T15:44:34;10.73;;;1.70;;
70560;SDS011;58109;53.570;10.084;2022-11-04T15:47:02;2.40;;;1.70;;
70560;SDS011;58109;53.570;10.084;2022-11-04T15:49:45;8.20;;;1.93;;
70560;SDS011;58109;53.570;10.084;2022-11-04T15:52:35;15.30;;;2.70;;
70560;SDS011;58109;53.570;10.084;2022-11-04T15:54:59;10.73;;;1.83;;
70560;SDS011;58109;53.570;10.084;2022-11-04T15:57:30;13.90;;;3.20;;
70560;SDS011;58109;53.570;10.084;2022-11-04T15:59:58;9.43;;;2.00;;
70560;SDS011;58109;53.570;10.084;2022-11-04T16:05:04;20.20;;;2.10;;
70560;SDS011;58109;53.570;10.084;2022-11-04T16:07:33;15.30;;;2.73;;
70560;SDS011;58109;53.570;10.084;2022-11-04T16:10:00;23.20;;;2.70;;
70560;SDS011;58109;53.570;10.084;2022-11-04T16:12:33;8.53;;;1.93;;
70560;SDS011;58109;53.570;10.084;2022-11-04T16:15:03;9.73;;;2.10;;
70560;SDS011;58109;53.570;10.084;2022-11-04T16:17:28;8.20;;;2.03;;
70560;SDS011;58109;53.570;10.084;2022-11-04T16:19:59;8.60;;;2.40;;
70560;SDS011;58109;53.570;10.084;2022-11-04T16:22:31;16.30;;;2.30;;
70560;SDS011;58109;53.570;10.084;2022-11-04T16:25:02;10.80;;;2.30;;
70560;SDS011;58109;53.570;10.084;2022-11-04T16:27:29;11.53;;;1.97;;
70560;SDS011;58109;53.570;10.084;2022-11-04T16:32:48;10.20;;;3.83;;
70560;SDS011;58109;53.570;10.084;2022-11-04T16:37:48;10.70;;;2.43;;
70560;SDS011;58109;53.570;10.084;2022-11-04T16:40:15;5.23;;;2.00;;
70560;SDS011;58109;53.570;10.084;2022-11-04T16:42:41;15.00;;;6.17;;
70560;SDS011;58109;53.570;10.084;2022-11-04T16:45:16;9.70;;;2.67;;
70560;SDS011;58109;53.570;10.084;2022-11-04T16:47:46;7.23;;;3.67;;
70560;SDS011;58109;53.570;10.084;2022-11-04T16:50:15;9.13;;;4.20;;
70560;SDS011;58109;53.570;10.084;2022-11-04T16:52:41;10.50;;;2.53;;
70560;SDS011;58109;53.570;10.084;2022-11-04T16:55:10;11.50;;;2.90;;
70560;SDS011;58109;53.570;10.084;2022-11-04T16:57:36;9.43;;;3.27;;
70560;SDS011;58109;53.570;10.084;2022-11-04T17:00:02;7.50;;;2.67;;
70560;SDS011;58109;53.570;10.084;2022-11-04T17:02:32;8.20;;;3.27;;
70560;SDS011;58109;53.570;10.084;2022-11-04T17:05:01;12.20;;;4.87;;
70560;SDS011;58109;53.570;10.084;2022-11-04T17:07:31;15.10;;;4.23;;
70560;SDS011;58109;53.570;10.084;2022-11-04T17:09:58;15.10;;;4.00;;
70560;SDS011;58109;53.570;10.084;2022-11-04T17:12:24;14.57;;;3.20;;
70560;SDS011;58109;53.570;10.084;2022-11-04T17:14:49;8.50;;;2.50;;
70560;SDS011;58109;53.570;10.084;2022-11-04T17:17:14;8.93;;;2.60;;
70560;SDS011;58109;53.570;10.084;2022-11-04T17:19:40;12.27;;;3.40;;
70560;SDS011;58109;53.570;10.084;2022-11-04T17:22:06;9.37;;;2.30;;
70560;SDS011;58109;53.570;10.084;2022-11-04T17:24:32;14.20;;;2.73;;
70560;SDS011;58109;53.570;10.084;2022-11-04T17:26:57;13.67;;;3.50;;
70560;SDS011;58109;53.570;10.084;2022-11-04T17:29:23;11.67;;;3.03;;
70560;SDS011;58109;53.570;10.084;2022-11-04T17:31:48;10.53;;;2.90;;
70560;SDS011;58109;53.570;10.084;2022-11-04T17:34:14;29.87;;;8.63;;
70560;SDS011;58109;53.570;10.084;2022-11-04T17:36:39;16.53;;;5.57;;
70560;SDS011;58109;53.570;10.084;2022-11-04T17:39:07;16.50;;;5.03;;
70560;SDS011;58109;53.570;10.084;2022-11-04T17:41:32;17.60;;;5.70;;
70560;SDS011;58109;53.570;10.084;2022-11-04T17:44:16;10.77;;;3.57;;
70560;SDS011;58109;53.570;10.084;2022-11-04T17:46:41;10.90;;;3.53;;
70560;SDS011;58109;53.570;10.084;2022-11-04T17:51:38;17.40;;;4.50;;
70560;SDS011;58109;53.570;10.084;2022-11-04T17:54:04;14.33;;;4.40;;
70560;SDS011;58109;53.570;10.084;2022-11-04T17:56:30;11.87;;;3.67;;
70560;SDS011;58109;53.570;10.084;2022-11-04T17:58:58;6.13;;;2.70;;
70560;SDS011;58109;53.570;10.084;2022-11-04T18:01:25;8.00;;;3.43;;
70560;SDS011;58109;53.570;10.084;2022-11-04T18:03:51;12.43;;;3.60;;
70560;SDS011;58109;53.570;10.084;2022-11-04T18:06:17;14.07;;;5.30;;